OMAA/AUH METAR and TAF weather

Enter ICAO airport designator
Station Type Date Time Source
OMAA METAR 2019/10/14 06:00 UTC NOAA

OMAA 140600Z 17010KT CAVOK 32/17 Q1015 NOSIG


Station Type Date Time Source
OMAA Decoded METAR 2019/10/14 06:00 UTC NOAA

Abu Dhabi International Airport, United Arab Emirates (OMAA) 24-26N 054-39E 27M
Oct 14, 2019 - 02:00 AM EDT / 2019.10.14 0600 UTC
Wind: from the S (170 degrees) at 12 MPH (10 KT):0
Visibility: greater than 7 mile(s):0
Temperature: 89 F (32 C)
Dew Point: 62 F (17 C)
Relative Humidity: 40%
Pressure (altimeter): 29.97 in. Hg (1015 hPa)
ob: OMAA 140600Z 17010KT CAVOK 32/17 Q1015 NOSIG
cycle: 6

Station Type Date Time Source
OMAA TAF 2019/10/14 06:03 UTC NOAA

TAF TAF OMAA 140500Z 1406/1512 18009KT 8000 NSC
BECMG 1408/1410 33012KT
BECMG 1418/1420 14008KT
BECMG 1508/1510 34011KT

Example: see airport list